createdAt,value
2023-09-05T00:01:07.284Z,99.90
2023-09-05T00:03:35.692Z,99.90
2023-09-05T00:06:07.838Z,99.90
2023-09-05T00:08:36.429Z,99.90
2023-09-05T00:11:06.479Z,99.90
2023-09-05T00:13:35.218Z,99.90
2023-09-05T00:16:04.130Z,99.90
2023-09-05T00:18:38.027Z,99.90
2023-09-05T00:21:12.234Z,99.90
2023-09-05T00:23:43.442Z,99.90
2023-09-05T00:26:14.584Z,99.90
2023-09-05T00:28:46.393Z,99.90
2023-09-05T00:31:16.605Z,99.90
2023-09-05T00:33:54.811Z,99.90
2023-09-05T00:36:33.340Z,99.90
2023-09-05T00:39:05.054Z,99.90
2023-09-05T00:41:38.254Z,99.90
2023-09-05T00:44:06.690Z,99.90
2023-09-05T00:46:38.344Z,99.90
2023-09-05T00:49:15.003Z,99.90
2023-09-05T00:51:47.910Z,99.90
2023-09-05T00:54:23.940Z,99.90
2023-09-05T00:56:58.281Z,99.90
2023-09-05T00:59:35.537Z,99.90
2023-09-05T01:02:05.996Z,99.90
2023-09-05T01:04:35.133Z,99.90
2023-09-05T01:08:11.481Z,99.90
2023-09-05T01:11:10.267Z,99.90
2023-09-05T01:13:43.036Z,99.90
2023-09-05T01:16:19.216Z,99.90
2023-09-05T01:18:51.856Z,99.90
2023-09-05T01:21:44.872Z,99.90
2023-09-05T01:24:21.747Z,99.90
2023-09-05T01:26:55.665Z,99.90
2023-09-05T01:29:31.997Z,99.90
2023-09-05T01:32:14.592Z,99.90
2023-09-05T01:34:44.399Z,99.90
2023-09-05T01:37:32.326Z,99.90
2023-09-05T01:40:05.199Z,99.90
2023-09-05T01:42:38.041Z,99.90
2023-09-05T01:45:07.081Z,99.90
2023-09-05T01:47:40.819Z,99.90
2023-09-05T01:50:17.488Z,99.90
2023-09-05T01:52:46.659Z,99.90
2023-09-05T01:55:26.245Z,99.90
2023-09-05T01:57:55.809Z,99.90
2023-09-05T02:00:23.057Z,99.90
2023-09-05T02:02:53.757Z,99.90
2023-09-05T02:05:25.441Z,99.90
2023-09-05T02:07:54.269Z,99.90
2023-09-05T02:10:21.634Z,99.90
2023-09-05T02:12:51.748Z,99.90
2023-09-05T02:15:27.689Z,99.90
2023-09-05T02:18:05.183Z,99.90
2023-09-05T02:20:41.179Z,99.90
2023-09-05T02:23:09.560Z,99.90
2023-09-05T02:25:48.219Z,99.90
2023-09-05T02:28:25.749Z,99.90
2023-09-05T02:30:56.476Z,99.90
2023-09-05T02:33:29.906Z,99.90
2023-09-05T02:36:20.357Z,99.90
2023-09-05T02:39:02.489Z,99.90
2023-09-05T02:41:31.500Z,99.90
2023-09-05T02:44:10.012Z,99.90
2023-09-05T02:46:37.621Z,99.90
2023-09-05T02:49:10.566Z,99.90
2023-09-05T02:51:40.869Z,99.90
2023-09-05T02:54:32.317Z,99.90
2023-09-05T02:57:24.956Z,99.90
2023-09-05T03:03:00.071Z,99.90
2023-09-05T03:05:35.120Z,99.90
2023-09-05T03:11:07.880Z,99.90
2023-09-05T03:16:39.320Z,99.90
2023-09-05T03:19:35.294Z,99.90
2023-09-05T03:29:19.899Z,99.90
2023-09-05T03:31:56.228Z,99.90
2023-09-05T03:35:03.799Z,99.90
2023-09-05T03:37:59.360Z,99.90
2023-09-05T03:43:38.468Z,99.90
2023-09-05T03:46:19.040Z,99.90
2023-09-05T03:48:53.776Z,99.90
2023-09-05T03:51:31.138Z,99.90
2023-09-05T03:54:02.501Z,99.90
2023-09-05T03:56:31.165Z,99.90
2023-09-05T03:59:03.680Z,99.90
2023-09-05T04:01:41.226Z,99.90
2023-09-05T04:04:14.178Z,99.90
2023-09-05T04:06:50.230Z,99.90
2023-09-05T04:09:27.193Z,99.90
2023-09-05T04:12:04.704Z,99.90
2023-09-05T04:14:34.249Z,99.90
2023-09-05T04:17:11.934Z,99.90
2023-09-05T04:19:39.834Z,99.90
2023-09-05T04:22:11.010Z,99.90
2023-09-05T04:24:40.009Z,99.90
2023-09-05T04:27:10.949Z,99.90
2023-09-05T04:29:48.891Z,99.90
2023-09-05T04:32:17.249Z,99.90
2023-09-05T04:34:47.101Z,99.90
2023-09-05T04:40:10.426Z,99.90
2023-09-05T04:42:44.012Z,99.90
2023-09-05T04:45:21.794Z,99.90
2023-09-05T04:47:53.938Z,99.90
2023-09-05T04:50:38.736Z,99.90
2023-09-05T04:53:46.765Z,99.90
2023-09-05T04:59:49.365Z,99.90
2023-09-05T05:02:36.749Z,99.90
2023-09-05T05:08:38.638Z,99.90
2023-09-05T05:14:05.635Z,99.90
2023-09-05T05:16:37.636Z,99.90
2023-09-05T05:19:26.255Z,99.90
2023-09-05T05:22:29.634Z,99.90
2023-09-05T05:25:16.355Z,99.90
2023-09-05T05:37:43.735Z,99.90
2023-09-05T05:46:32.351Z,99.90
2023-09-05T05:49:11.059Z,99.90
2023-09-05T05:51:48.629Z,99.90
2023-09-05T05:54:18.902Z,99.90
2023-09-05T05:56:47.678Z,99.90
2023-09-05T05:59:19.008Z,99.90
2023-09-05T06:01:49.451Z,99.90
2023-09-05T06:04:17.719Z,99.90
2023-09-05T06:06:54.227Z,99.90
2023-09-05T06:09:28.512Z,99.90
2023-09-05T06:12:03.276Z,99.90
2023-09-05T06:14:34.191Z,99.90
2023-09-05T06:17:11.141Z,99.90
2023-09-05T06:19:42.689Z,99.90
2023-09-05T06:22:17.169Z,99.90
2023-09-05T06:24:52.781Z,99.90
2023-09-05T06:27:22.749Z,99.90
2023-09-05T06:29:55.076Z,99.90
2023-09-05T06:32:23.289Z,99.90
2023-09-05T06:34:52.158Z,99.90
2023-09-05T06:37:26.924Z,99.90
2023-09-05T06:39:55.198Z,99.90
2023-09-05T06:43:46.339Z,99.90
2023-09-05T06:46:17.181Z,99.90
2023-09-05T06:48:48.116Z,99.90
2023-09-05T06:51:18.919Z,99.90
2023-09-05T06:53:59.219Z,99.30
2023-09-05T06:56:28.554Z,99.10
2023-09-05T06:58:58.482Z,97.90
2023-09-05T07:01:31.004Z,97.20
2023-09-05T07:03:59.899Z,96.70
2023-09-05T07:06:31.085Z,96.30
2023-09-05T07:09:01.554Z,96.30
2023-09-05T07:11:31.271Z,95.50
2023-09-05T07:14:00.303Z,96.50
2023-09-05T07:16:30.188Z,95.30
2023-09-05T07:19:06.792Z,95.00
2023-09-05T07:21:39.654Z,94.90
2023-09-05T07:24:18.034Z,93.00
2023-09-05T07:26:49.454Z,90.70
2023-09-05T07:29:27.091Z,90.90
2023-09-05T07:31:58.265Z,90.50
2023-09-05T07:34:28.139Z,91.30
2023-09-05T07:36:58.843Z,90.40
2023-09-05T07:39:28.240Z,89.80
2023-09-05T07:41:57.474Z,90.30
2023-09-05T07:44:27.710Z,89.00
2023-09-05T07:47:04.156Z,85.80
2023-09-05T07:49:43.050Z,85.90
2023-09-05T07:52:13.158Z,84.90
2023-09-05T07:54:43.673Z,87.80
2023-09-05T07:57:14.884Z,91.00
2023-09-05T07:59:46.258Z,93.70
2023-09-05T08:02:15.074Z,94.40
2023-09-05T08:04:44.678Z,95.70
2023-09-05T08:07:13.477Z,95.10
2023-09-05T08:09:49.655Z,95.70
2023-09-05T08:12:20.355Z,97.50
2023-09-05T08:14:49.929Z,97.40
2023-09-05T08:17:18.869Z,97.90
2023-09-05T08:19:47.399Z,97.90
2023-09-05T08:22:16.807Z,99.20
2023-09-05T08:24:46.942Z,99.10
2023-09-05T08:27:20.374Z,99.90
2023-09-05T08:29:50.390Z,99.90
2023-09-05T08:32:23.702Z,99.90
2023-09-05T08:34:52.849Z,99.90
2023-09-05T08:37:22.548Z,99.90
2023-09-05T08:39:58.171Z,99.90
2023-09-05T08:42:25.939Z,99.50
2023-09-05T08:45:04.214Z,99.60
2023-09-05T08:47:34.756Z,99.90
2023-09-05T08:50:04.398Z,99.90
2023-09-05T08:52:42.378Z,99.90
2023-09-05T08:55:17.488Z,99.90
2023-09-05T08:57:52.052Z,99.90
2023-09-05T09:00:23.117Z,99.60
2023-09-05T09:03:02.940Z,99.20
2023-09-05T09:05:32.990Z,98.40
2023-09-05T09:08:03.625Z,99.00
2023-09-05T09:10:32.236Z,99.30
2023-09-05T09:13:23.359Z,99.70
2023-09-05T09:15:53.565Z,99.30
2023-09-05T09:18:24.556Z,99.90
2023-09-05T09:20:54.397Z,99.90
2023-09-05T09:23:35.164Z,99.80
2023-09-05T09:26:05.831Z,98.90
2023-09-05T09:28:43.479Z,99.90
2023-09-05T09:31:14.274Z,99.90
2023-09-05T09:33:46.170Z,99.50
2023-09-05T09:36:17.586Z,99.90
2023-09-05T09:38:53.847Z,99.90
2023-09-05T09:41:26.193Z,99.70
2023-09-05T09:44:03.455Z,99.50
2023-09-05T09:46:31.884Z,99.90
2023-09-05T09:49:03.467Z,99.90
2023-09-05T09:51:37.776Z,99.10
2023-09-05T09:54:14.789Z,99.90
2023-09-05T09:57:05.846Z,99.90
2023-09-05T09:59:40.269Z,99.20
2023-09-05T10:02:17.556Z,99.80
2023-09-05T10:04:49.558Z,99.10
2023-09-05T10:07:20.290Z,98.20
2023-09-05T10:10:01.804Z,99.90
2023-09-05T10:12:30.294Z,99.20
2023-09-05T10:15:17.610Z,99.90
2023-09-05T10:17:49.024Z,98.10
2023-09-05T10:20:24.759Z,99.20
2023-09-05T10:23:03.729Z,99.90
2023-09-05T10:25:35.054Z,96.30
2023-09-05T10:28:03.461Z,98.30
2023-09-05T10:31:18.629Z,97.40
2023-09-05T10:33:59.903Z,98.60
2023-09-05T10:36:50.598Z,97.60
2023-09-05T10:39:43.669Z,97.20
2023-09-05T10:42:15.069Z,97.80
2023-09-05T10:44:48.666Z,97.10
2023-09-05T10:47:38.006Z,99.90
2023-09-05T10:50:11.062Z,99.80
2023-09-05T10:52:44.211Z,98.90
2023-09-05T10:55:35.256Z,98.50
2023-09-05T10:58:13.948Z,98.70
2023-09-05T11:00:43.858Z,99.00
2023-09-05T11:03:15.799Z,97.80
2023-09-05T11:05:54.449Z,99.90
2023-09-05T11:08:31.249Z,99.30
2023-09-05T11:11:00.359Z,97.00
2023-09-05T11:13:30.559Z,99.60
2023-09-05T11:16:09.205Z,99.90
2023-09-05T11:18:49.659Z,98.40
2023-09-05T11:21:35.304Z,98.10
2023-09-05T11:24:06.722Z,98.40
2023-09-05T11:26:35.508Z,97.60
2023-09-05T11:29:04.198Z,96.90
2023-09-05T11:31:32.574Z,96.80
2023-09-05T11:33:59.702Z,98.70
2023-09-05T11:36:27.913Z,96.40
2023-09-05T11:38:57.269Z,96.80
2023-09-05T11:41:46.030Z,97.70
2023-09-05T11:44:22.378Z,98.90
2023-09-05T11:46:51.683Z,97.20
2023-09-05T11:49:23.276Z,97.10
2023-09-05T11:51:50.777Z,98.20
2023-09-05T11:54:20.545Z,98.20
2023-09-05T11:56:59.733Z,98.00
2023-09-05T11:59:32.281Z,96.90
2023-09-05T12:02:25.395Z,98.10
2023-09-05T12:05:07.265Z,99.20
2023-09-05T12:07:38.068Z,98.00
2023-09-05T12:10:07.432Z,97.90
2023-09-05T12:12:45.478Z,97.30
2023-09-05T12:15:14.296Z,97.50
2023-09-05T12:17:51.035Z,98.30
2023-09-05T12:20:28.737Z,96.10
2023-09-05T12:22:57.271Z,97.20
2023-09-05T12:25:35.995Z,96.50
2023-09-05T12:28:19.752Z,96.90
2023-09-05T12:30:49.526Z,97.50
2023-09-05T12:33:23.956Z,96.60
2023-09-05T12:36:00.502Z,97.00
2023-09-05T12:38:37.124Z,96.70
2023-09-05T12:41:07.567Z,96.80
2023-09-05T12:43:40.638Z,96.30
2023-09-05T12:46:10.774Z,97.40
2023-09-05T12:48:41.419Z,96.60
2023-09-05T12:51:09.937Z,96.10
2023-09-05T12:53:40.932Z,98.10
2023-09-05T12:56:10.608Z,97.40
2023-09-05T12:58:39.195Z,97.60
2023-09-05T13:01:08.366Z,96.70
2023-09-05T13:03:38.731Z,96.50
2023-09-05T13:06:09.177Z,96.80
2023-09-05T13:08:38.974Z,96.50
2023-09-05T13:11:08.000Z,97.50
2023-09-05T13:13:46.588Z,97.00
2023-09-05T13:16:22.708Z,97.50
2023-09-05T13:18:52.397Z,97.00
2023-09-05T13:21:23.015Z,96.50
2023-09-05T13:24:00.756Z,97.10
2023-09-05T13:26:30.508Z,96.80
2023-09-05T13:29:00.572Z,98.90
2023-09-05T13:31:30.688Z,96.40
2023-09-05T13:34:00.637Z,98.00
2023-09-05T13:36:30.367Z,96.60
2023-09-05T13:39:06.930Z,97.60
2023-09-05T13:41:35.666Z,97.10
2023-09-05T13:44:14.279Z,98.10
2023-09-05T13:46:42.790Z,98.20
2023-09-05T13:49:15.041Z,97.10
2023-09-05T13:51:45.761Z,96.90
2023-09-05T13:54:15.974Z,98.10
2023-09-05T13:56:44.975Z,96.60
2023-09-05T13:59:14.503Z,97.20
2023-09-05T14:01:48.578Z,96.70
2023-09-05T14:04:26.144Z,97.20
2023-09-05T14:06:56.052Z,96.60
2023-09-05T14:09:26.086Z,96.40
2023-09-05T14:11:54.821Z,96.90
2023-09-05T14:14:22.369Z,97.10
2023-09-05T14:16:56.193Z,97.20
2023-09-05T14:19:32.975Z,96.40
2023-09-05T14:22:03.576Z,96.40
2023-09-05T14:24:31.873Z,97.60
2023-09-05T14:27:01.001Z,98.20
2023-09-05T14:29:30.409Z,96.80
2023-09-05T14:31:58.970Z,98.40
2023-09-05T14:34:30.968Z,98.10
2023-09-05T14:36:58.316Z,96.20
2023-09-05T14:39:28.313Z,96.80
2023-09-05T14:42:00.354Z,97.30
2023-09-05T14:44:30.899Z,97.30
2023-09-05T14:46:58.413Z,97.30
2023-09-05T14:49:30.118Z,96.80
2023-09-05T14:52:01.504Z,96.90
2023-09-05T14:54:31.477Z,97.00
2023-09-05T14:57:01.154Z,97.70
2023-09-05T14:59:29.796Z,99.20
2023-09-05T15:01:58.380Z,99.20
2023-09-05T15:04:28.193Z,96.90
2023-09-05T15:06:58.676Z,97.20
2023-09-05T15:09:31.562Z,97.90
2023-09-05T15:12:00.133Z,97.70
2023-09-05T15:14:33.921Z,98.10
2023-09-05T15:17:03.515Z,97.90
2023-09-05T15:19:33.236Z,97.70
2023-09-05T15:22:04.086Z,97.90
2023-09-05T15:24:43.359Z,98.40
2023-09-05T15:27:17.008Z,98.70
2023-09-05T15:29:45.866Z,97.60
2023-09-05T15:32:15.701Z,98.30
2023-09-05T15:34:50.642Z,97.70
2023-09-05T15:37:27.707Z,97.60
2023-09-05T15:39:57.044Z,97.70
2023-09-05T15:42:40.339Z,97.60
2023-09-05T15:45:10.046Z,98.70
2023-09-05T15:47:47.306Z,98.60
2023-09-05T15:50:24.555Z,97.60
2023-09-05T15:52:54.306Z,97.90
2023-09-05T15:55:23.095Z,98.30
2023-09-05T15:57:59.601Z,98.00
2023-09-05T16:00:36.907Z,98.40
2023-09-05T16:03:05.928Z,98.20
2023-09-05T16:05:35.164Z,98.30
2023-09-05T16:08:04.364Z,98.50
2023-09-05T16:10:33.066Z,98.70
2023-09-05T16:13:02.815Z,98.90
2023-09-05T16:15:31.746Z,98.50
2023-09-05T16:18:01.269Z,98.90
2023-09-05T16:20:38.940Z,98.40
2023-09-05T16:23:17.170Z,99.00
2023-09-05T16:25:52.315Z,99.20
2023-09-05T16:28:32.349Z,99.90
2023-09-05T16:31:04.580Z,99.90
2023-09-05T16:33:33.232Z,99.90
2023-09-05T16:36:12.004Z,99.90
2023-09-05T16:38:42.243Z,99.90
2023-09-05T16:41:25.279Z,99.90
2023-09-05T16:44:04.304Z,99.90
2023-09-05T16:46:35.838Z,99.90
2023-09-05T16:49:03.464Z,99.90
2023-09-05T16:51:37.152Z,99.90
2023-09-05T16:54:05.959Z,99.90
2023-09-05T16:56:35.319Z,99.90
2023-09-05T16:59:03.912Z,99.90
2023-09-05T17:01:33.907Z,99.90
2023-09-05T17:04:04.757Z,99.90
2023-09-05T17:06:32.540Z,99.90
2023-09-05T17:09:01.015Z,99.90
2023-09-05T17:11:29.794Z,99.90
2023-09-05T17:13:57.191Z,99.90
2023-09-05T17:16:34.955Z,99.90
2023-09-05T17:19:17.093Z,99.90
2023-09-05T17:21:46.699Z,99.90
2023-09-05T17:24:22.867Z,99.90
2023-09-05T17:27:01.020Z,99.90
2023-09-05T17:29:28.526Z,99.90
2023-09-05T17:32:05.022Z,99.90
2023-09-05T17:34:42.223Z,99.90
2023-09-05T17:37:22.964Z,99.90
2023-09-05T17:39:55.470Z,99.90
2023-09-05T17:42:24.271Z,99.90
2023-09-05T17:44:53.408Z,99.90
2023-09-05T17:47:23.267Z,99.90
2023-09-05T17:49:52.097Z,99.90
2023-09-05T17:52:20.453Z,99.90
2023-09-05T17:54:49.336Z,99.90
2023-09-05T17:57:20.450Z,99.90
2023-09-05T17:59:50.829Z,99.90
2023-09-05T18:02:22.111Z,99.90
2023-09-05T18:04:51.860Z,99.90
2023-09-05T18:07:20.413Z,99.90
2023-09-05T18:09:55.640Z,99.90
2023-09-05T18:12:26.122Z,99.90
2023-09-05T18:14:57.174Z,99.90
2023-09-05T18:17:26.034Z,99.90
2023-09-05T18:19:55.904Z,99.90
2023-09-05T18:22:37.219Z,99.90
2023-09-05T18:25:08.128Z,99.90
2023-09-05T18:27:38.874Z,99.90
2023-09-05T18:32:52.809Z,99.90
2023-09-05T18:35:24.362Z,99.90
2023-09-05T18:37:52.785Z,99.90
2023-09-05T18:40:21.743Z,99.90
2023-09-05T18:42:58.958Z,99.90
2023-09-05T18:45:35.154Z,99.90
2023-09-05T18:48:05.120Z,99.90
2023-09-05T18:50:34.216Z,99.90
2023-09-05T18:53:13.584Z,99.90
2023-09-05T18:55:40.975Z,99.90
2023-09-05T18:58:15.526Z,99.90
2023-09-05T19:00:44.005Z,99.90
2023-09-05T19:03:13.028Z,99.90
2023-09-05T19:05:44.147Z,99.90
2023-09-05T19:08:16.487Z,99.90
2023-09-05T19:10:45.876Z,99.90
2023-09-05T19:13:19.741Z,99.90
2023-09-05T19:15:51.237Z,99.90
2023-09-05T19:18:19.535Z,99.90
2023-09-05T19:20:55.702Z,99.90
2023-09-05T19:23:26.129Z,99.90
2023-09-05T19:25:55.892Z,99.90
2023-09-05T19:28:25.533Z,99.90
2023-09-05T19:30:54.369Z,99.90
2023-09-05T19:33:25.170Z,99.90
2023-09-05T19:35:57.167Z,99.90
2023-09-05T19:38:26.174Z,99.90
2023-09-05T19:40:54.660Z,99.90
2023-09-05T19:43:22.687Z,99.90
2023-09-05T19:45:53.147Z,99.90
2023-09-05T19:48:21.981Z,99.90
2023-09-05T19:50:51.047Z,99.90
2023-09-05T19:53:22.070Z,99.90
2023-09-05T19:55:54.106Z,99.90
2023-09-05T19:58:22.764Z,99.90
2023-09-05T20:00:54.165Z,99.90
2023-09-05T20:03:24.357Z,99.90
2023-09-05T20:05:55.295Z,99.90
2023-09-05T20:08:27.348Z,99.90
2023-09-05T20:10:56.850Z,99.90
2023-09-05T20:13:28.456Z,99.90
2023-09-05T20:15:56.578Z,99.90
2023-09-05T20:18:26.592Z,99.90
2023-09-05T20:21:16.862Z,99.90
2023-09-05T20:23:47.198Z,99.90
2023-09-05T20:26:19.649Z,99.90
2023-09-05T20:28:49.438Z,99.90
2023-09-05T20:31:26.633Z,99.90
2023-09-05T20:34:04.665Z,99.90
2023-09-05T20:36:34.588Z,99.90
2023-09-05T20:39:06.849Z,99.90
2023-09-05T20:41:37.878Z,99.90
2023-09-05T20:44:09.068Z,99.90
2023-09-05T20:49:21.963Z,99.90
2023-09-05T20:51:54.574Z,99.90
2023-09-05T20:54:24.060Z,99.90
2023-09-05T20:56:52.774Z,99.90
2023-09-05T20:59:33.207Z,99.90
2023-09-05T21:02:03.849Z,99.90
2023-09-05T21:04:41.872Z,99.90
2023-09-05T21:07:10.342Z,99.90
2023-09-05T21:09:40.412Z,99.90
2023-09-05T21:12:10.713Z,99.90
2023-09-05T21:14:39.674Z,99.90
2023-09-05T21:17:10.482Z,99.90
2023-09-05T21:19:38.783Z,99.90
2023-09-05T21:22:08.434Z,99.90
2023-09-05T21:24:40.764Z,99.90
2023-09-05T21:27:09.376Z,99.90
2023-09-05T21:29:39.329Z,99.90
2023-09-05T21:32:10.986Z,99.90
2023-09-05T21:34:44.281Z,99.90
2023-09-05T21:37:20.815Z,99.90
2023-09-05T21:39:50.980Z,99.90
2023-09-05T21:42:31.892Z,99.90
2023-09-05T21:45:07.085Z,99.90
2023-09-05T21:47:43.269Z,99.90
2023-09-05T21:53:39.894Z,99.90
2023-09-05T21:59:26.449Z,99.90
2023-09-05T22:02:21.921Z,99.90
2023-09-05T22:05:04.153Z,99.90
2023-09-05T22:07:53.120Z,99.90
2023-09-05T22:10:42.294Z,99.90
2023-09-05T22:13:19.571Z,99.90
2023-09-05T22:16:13.669Z,99.90
2023-09-05T22:25:39.048Z,99.90
2023-09-05T22:32:07.106Z,99.90
2023-09-05T22:47:14.895Z,99.90
2023-09-05T22:56:54.176Z,99.90
2023-09-05T22:59:39.408Z,99.90
2023-09-05T23:08:09.663Z,99.90
2023-09-05T23:10:48.209Z,99.90
2023-09-05T23:13:19.803Z,99.90
2023-09-05T23:18:51.909Z,99.90
2023-09-05T23:22:07.759Z,99.90
2023-09-05T23:34:16.489Z,99.90
2023-09-05T23:40:56.374Z,99.90
2023-09-05T23:43:38.640Z,99.90
2023-09-05T23:49:30.006Z,99.90
2023-09-05T23:52:35.424Z,99.90
2023-09-05T23:55:18.723Z,99.90
